Time;durP1;ratioP1;P1;durP2;ratioP2;P2;SDS_P1;SDS_P2;PMS_P1;PMS_P2;Temp;Humidity;BMP_temperature;BMP_pressure;BME280_temperature;BME280_humidity;BME280_pressure;Samples;Min_cycle;Max_cycle;Signal;HPM_P1;HPM_P2
2023/05/05 00:01:53;;;;;;;7.32;2.97;;;12.90;75.60;;;;;;4970888;28;20030;-68
2023/05/05 00:04:21;;;;;;;5.85;2.85;;;12.90;75.70;;;;;;4977298;28;20584;-68
2023/05/05 00:06:47;;;;;;;7.50;2.45;;;12.90;75.70;;;;;;4969373;28;20027;-68
2023/05/05 00:09:13;;;;;;;4.85;1.95;;;12.90;75.80;;;;;;4973219;28;20054;-68
2023/05/05 00:11:39;;;;;;;6.35;3.10;;;12.90;75.90;;;;;;4969668;28;20475;-68
2023/05/05 00:14:05;;;;;;;4.22;2.45;;;12.90;76.50;;;;;;4971457;28;20038;-68
2023/05/05 00:16:31;;;;;;;8.98;2.35;;;12.90;76.80;;;;;;4971279;28;20117;-68
2023/05/05 00:18:58;;;;;;;5.63;2.53;;;12.90;77.40;;;;;;4969988;28;20977;-68
2023/05/05 00:21:23;;;;;;;5.03;2.45;;;12.90;77.70;;;;;;4973420;28;20030;-68
2023/05/05 00:23:49;;;;;;;5.65;2.85;;;12.90;78.20;;;;;;4974754;28;20081;-69
2023/05/05 00:26:15;;;;;;;4.43;2.42;;;12.80;78.00;;;;;;4971424;28;20042;-69
2023/05/05 00:28:43;;;;;;;9.27;2.58;;;12.70;78.80;;;;;;4970463;28;20035;-68
2023/05/05 00:31:09;;;;;;;6.65;2.80;;;12.70;78.70;;;;;;4965150;28;20051;-68
2023/05/05 00:33:35;;;;;;;6.22;2.85;;;12.70;79.40;;;;;;4973299;28;20040;-68
2023/05/05 00:36:01;;;;;;;4.03;2.33;;;12.70;80.00;;;;;;4968362;28;20089;-68
2023/05/05 00:38:27;;;;;;;6.82;2.80;;;12.70;79.70;;;;;;4973022;28;20041;-66
2023/05/05 00:40:53;;;;;;;8.45;2.58;;;12.70;79.70;;;;;;4969654;28;20030;-68
2023/05/05 00:43:19;;;;;;;5.13;2.50;;;12.70;80.10;;;;;;4972105;28;20066;-68
2023/05/05 00:45:46;;;;;;;7.55;2.83;;;12.60;80.60;;;;;;4971316;28;21002;-68
2023/05/05 00:48:13;;;;;;;6.70;3.05;;;12.60;80.70;;;;;;4964176;28;20720;-69
2023/05/05 00:50:41;;;;;;;3.42;2.40;;;12.70;81.60;;;;;;4970602;28;20030;-68
2023/05/05 00:53:07;;;;;;;9.63;2.92;;;12.60;81.90;;;;;;4983648;28;20035;-68
2023/05/05 00:55:34;;;;;;;3.72;2.15;;;12.50;81.50;;;;;;4954415;28;20026;-69
2023/05/05 00:58:02;;;;;;;5.35;2.80;;;12.50;82.00;;;;;;4967528;28;20105;-68
2023/05/05 01:00:28;;;;;;;4.90;2.50;;;12.50;81.80;;;;;;4970960;28;20033;-68
2023/05/05 01:02:55;;;;;;;5.75;2.70;;;12.50;82.50;;;;;;4967746;28;20035;-69
2023/05/05 01:05:22;;;;;;;6.68;2.80;;;12.50;82.50;;;;;;4970824;28;20058;-68
2023/05/05 01:08:15;;;;;;;6.25;2.50;;;12.40;83.00;;;;;;4970427;28;20399;-68
2023/05/05 01:10:47;;;;;;;7.07;2.72;;;12.40;83.50;;;;;;4965042;28;20065;-68
2023/05/05 01:13:41;;;;;;;6.95;2.70;;;12.40;84.10;;;;;;4969481;28;20034;-68
2023/05/05 01:16:26;;;;;;;6.30;2.55;;;12.40;83.70;;;;;;4971620;28;20034;-68
2023/05/05 01:19:20;;;;;;;4.43;2.30;;;12.30;83.70;;;;;;4967809;28;20040;-68
2023/05/05 01:21:51;;;;;;;5.57;2.70;;;12.30;84.20;;;;;;4970085;28;20023;-68
2023/05/05 01:24:17;;;;;;;8.43;2.67;;;12.30;84.50;;;;;;4970262;28;20022;-68
2023/05/05 01:27:20;;;;;;;3.72;2.13;;;12.20;83.80;;;;;;4966168;28;20027;-68
2023/05/05 01:29:59;;;;;;;7.95;2.80;;;12.30;84.10;;;;;;4965962;28;20030;-68
2023/05/05 01:32:28;;;;;;;6.30;2.50;;;12.30;85.50;;;;;;4981564;28;20133;-68
2023/05/05 01:35:07;;;;;;;4.72;2.78;;;12.30;85.80;;;;;;4971685;28;20042;-68
2023/05/05 01:37:45;;;;;;;4.35;2.60;;;12.20;85.70;;;;;;4970898;28;20035;-66
2023/05/05 01:40:13;;;;;;;6.00;2.75;;;12.20;86.50;;;;;;4966951;28;20092;-68
2023/05/05 01:42:42;;;;;;;8.23;2.67;;;12.20;85.60;;;;;;4972299;28;20035;-68
2023/05/05 01:45:11;;;;;;;7.30;2.95;;;12.20;85.80;;;;;;4971185;28;20118;-68
2023/05/05 01:47:38;;;;;;;9.30;3.00;;;12.20;86.10;;;;;;4972587;28;20022;-68
2023/05/05 01:50:06;;;;;;;7.20;2.45;;;12.00;85.90;;;;;;4970437;28;20038;-68
2023/05/05 01:52:33;;;;;;;6.07;2.42;;;12.00;86.00;;;;;;4969461;28;20785;-68
2023/05/05 01:55:01;;;;;;;7.00;2.60;;;11.90;86.10;;;;;;4973797;28;20046;-68
2023/05/05 01:57:29;;;;;;;6.43;2.78;;;11.90;85.90;;;;;;4961880;28;20399;-68
2023/05/05 01:59:57;;;;;;;8.07;2.25;;;12.00;86.40;;;;;;4967023;28;20035;-68
2023/05/05 02:02:26;;;;;;;8.98;3.13;;;12.00;86.00;;;;;;4970358;28;20585;-68
2023/05/05 02:04:54;;;;;;;4.53;2.28;;;12.00;87.20;;;;;;4970072;28;20034;-68
2023/05/05 02:07:23;;;;;;;7.90;2.78;;;11.90;86.00;;;;;;4969190;28;20022;-68
2023/05/05 02:09:50;;;;;;;3.22;2.10;;;11.90;86.40;;;;;;4965503;28;20034;-69
2023/05/05 02:12:19;;;;;;;7.47;2.30;;;11.90;87.00;;;;;;4972766;28;20030;-68
2023/05/05 02:14:45;;;;;;;6.22;2.47;;;12.00;87.60;;;;;;4968791;28;20030;-68
2023/05/05 02:17:14;;;;;;;4.82;2.47;;;11.90;87.00;;;;;;4967979;28;20058;-68
2023/05/05 02:19:44;;;;;;;8.85;2.35;;;11.80;86.20;;;;;;4965560;28;20058;-68
2023/05/05 02:22:11;;;;;;;9.55;2.88;;;11.80;87.10;;;;;;4971449;28;20069;-68
2023/05/05 02:24:37;;;;;;;6.40;2.63;;;11.80;87.40;;;;;;4965166;28;20041;-68
2023/05/05 02:27:06;;;;;;;4.13;2.55;;;11.80;87.00;;;;;;4971425;28;20027;-68
2023/05/05 02:29:42;;;;;;;6.25;2.75;;;11.80;87.40;;;;;;4963528;28;20058;-69
2023/05/05 02:32:36;;;;;;;3.95;2.17;;;11.80;88.00;;;;;;4966055;28;20042;-68
2023/05/05 02:35:12;;;;;;;5.22;2.63;;;11.70;87.00;;;;;;4959299;28;20051;-68
2023/05/05 02:37:47;;;;;;;6.32;2.70;;;11.80;86.50;;;;;;4963690;28;20027;-68
2023/05/05 02:40:18;;;;;;;8.35;2.85;;;11.80;87.50;;;;;;4965690;28;20069;-69
2023/05/05 02:42:46;;;;;;;7.40;2.75;;;11.80;87.10;;;;;;4964581;28;20724;-68
2023/05/05 02:45:18;;;;;;;6.15;2.88;;;11.80;87.40;;;;;;4968350;28;20031;-68
2023/05/05 02:47:47;;;;;;;8.02;2.95;;;11.80;88.10;;;;;;4963490;28;20503;-68
2023/05/05 02:50:14;;;;;;;4.72;2.42;;;11.70;88.40;;;;;;4967554;28;20035;-68
2023/05/05 02:52:47;;;;;;;4.35;2.83;;;11.60;88.60;;;;;;4964928;28;20034;-68
2023/05/05 02:55:15;;;;;;;6.15;2.63;;;11.60;89.40;;;;;;4958057;28;20148;-67
2023/05/05 02:58:06;;;;;;;7.82;2.88;;;11.60;89.00;;;;;;4967189;28;20501;-68
2023/05/05 03:00:49;;;;;;;3.17;2.40;;;11.50;89.80;;;;;;4951244;28;20105;-68
2023/05/05 03:03:43;;;;;;;5.15;2.60;;;11.60;90.20;;;;;;4958336;28;20039;-68
2023/05/05 03:06:17;;;;;;;5.88;2.58;;;11.50;90.40;;;;;;4960067;28;20023;-68
2023/05/05 03:09:08;;;;;;;3.80;2.53;;;11.40;90.50;;;;;;4957467;28;20027;-68
2023/05/05 03:11:48;;;;;;;6.10;2.50;;;11.40;90.90;;;;;;4962081;28;20035;-68
2023/05/05 03:14:19;;;;;;;5.47;2.97;;;11.30;90.80;;;;;;4962716;28;20034;-68
2023/05/05 03:16:48;;;;;;;4.88;2.60;;;11.20;91.10;;;;;;4960973;28;20054;-68
2023/05/05 03:19:17;;;;;;;5.07;2.90;;;11.20;91.40;;;;;;4963927;28;22002;-68
2023/05/05 03:21:46;;;;;;;11.40;3.50;;;11.20;91.40;;;;;;4976987;28;20791;-68
2023/05/05 03:24:17;;;;;;;4.40;2.28;;;11.10;91.60;;;;;;4964209;28;20117;-64
2023/05/05 03:26:49;;;;;;;6.72;3.17;;;11.10;91.40;;;;;;4957021;28;20109;-67
2023/05/05 03:29:18;;;;;;;8.77;3.22;;;11.00;91.30;;;;;;4965871;28;20046;-68
2023/05/05 03:31:44;;;;;;;6.43;2.97;;;11.00;91.50;;;;;;4958689;28;20038;-68
2023/05/05 03:34:10;;;;;;;10.07;3.20;;;11.00;91.50;;;;;;4960558;28;20035;-68
2023/05/05 03:36:42;;;;;;;8.27;3.42;;;11.00;91.50;;;;;;4960718;28;20034;-68
2023/05/05 03:39:11;;;;;;;8.70;3.10;;;11.00;91.40;;;;;;4965366;28;20180;-68
2023/05/05 03:41:37;;;;;;;8.52;3.28;;;11.00;91.50;;;;;;4962001;28;20051;-68
2023/05/05 03:44:04;;;;;;;7.63;3.25;;;11.00;91.50;;;;;;4962318;28;20061;-68
2023/05/05 03:46:30;;;;;;;8.10;3.15;;;11.00;91.20;;;;;;4967462;28;20031;-64
2023/05/05 03:48:56;;;;;;;7.13;3.20;;;11.00;91.30;;;;;;4957469;28;20039;-67
2023/05/05 03:51:24;;;;;;;11.23;4.30;;;11.00;91.00;;;;;;4968746;28;20117;-68
2023/05/05 03:53:50;;;;;;;10.75;4.18;;;11.00;90.70;;;;;;4965245;28;20435;-68
2023/05/05 03:56:16;;;;;;;7.45;4.38;;;11.00;90.50;;;;;;4967201;28;20553;-68
2023/05/05 03:58:42;;;;;;;13.48;4.13;;;11.00;90.70;;;;;;4964589;28;20150;-64
2023/05/05 04:01:08;;;;;;;9.48;4.82;;;11.10;90.80;;;;;;4960700;28;20031;-67
2023/05/05 04:03:34;;;;;;;6.22;3.25;;;11.10;90.90;;;;;;4969680;28;20054;-67
2023/05/05 04:06:00;;;;;;;9.65;4.25;;;11.00;90.00;;;;;;4967209;28;20030;-67
2023/05/05 04:08:27;;;;;;;8.55;3.65;;;11.10;90.30;;;;;;4962194;28;20829;-68
2023/05/05 04:10:53;;;;;;;8.35;4.20;;;11.10;90.30;;;;;;4953804;28;20089;-67
2023/05/05 04:13:19;;;;;;;6.10;3.35;;;11.10;90.40;;;;;;4970945;28;20037;-67
2023/05/05 04:15:46;;;;;;;10.18;3.80;;;11.20;90.70;;;;;;4967202;28;20069;-67
2023/05/05 04:18:13;;;;;;;7.95;3.42;;;11.20;90.30;;;;;;4961555;28;20043;-67
2023/05/05 04:20:39;;;;;;;5.95;3.28;;;11.20;90.60;;;;;;4967324;28;20035;-67
2023/05/05 04:23:05;;;;;;;5.82;3.00;;;11.20;90.50;;;;;;4967757;28;20884;-67
2023/05/05 04:25:31;;;;;;;7.10;3.33;;;11.20;90.60;;;;;;4970332;28;20026;-66
2023/05/05 04:27:57;;;;;;;5.20;2.97;;;11.30;91.00;;;;;;4967569;28;20109;-68
2023/05/05 04:30:23;;;;;;;7.78;2.90;;;11.20;91.00;;;;;;4966476;28;20031;-67
2023/05/05 04:32:49;;;;;;;5.70;3.03;;;11.20;90.80;;;;;;4957955;28;20124;-67
2023/05/05 04:35:15;;;;;;;6.32;3.17;;;11.20;90.50;;;;;;4964883;28;20506;-67
2023/05/05 04:37:42;;;;;;;8.07;2.75;;;11.30;90.30;;;;;;4970594;28;20026;-67
2023/05/05 04:40:09;;;;;;;6.57;3.28;;;11.30;90.50;;;;;;4964230;28;20023;-67
2023/05/05 04:42:36;;;;;;;8.45;3.33;;;11.30;90.10;;;;;;4969919;28;20027;-67
2023/05/05 04:45:03;;;;;;;7.78;3.05;;;11.40;90.50;;;;;;4963809;28;20153;-67
2023/05/05 04:47:29;;;;;;;7.45;3.58;;;11.40;90.00;;;;;;4966446;28;20058;-67
2023/05/05 04:49:55;;;;;;;6.25;3.25;;;11.40;89.90;;;;;;4962084;28;20049;-67
2023/05/05 04:52:21;;;;;;;4.95;2.80;;;11.50;90.20;;;;;;4963973;28;20026;-68
2023/05/05 04:54:48;;;;;;;5.85;3.70;;;11.60;90.10;;;;;;4961896;28;20098;-67
2023/05/05 04:57:14;;;;;;;5.55;2.95;;;11.60;89.30;;;;;;4966783;28;20027;-67
2023/05/05 04:59:41;;;;;;;6.63;2.95;;;11.60;89.20;;;;;;4968382;28;20026;-67
2023/05/05 05:02:06;;;;;;;7.00;3.00;;;11.70;89.30;;;;;;4968477;28;20081;-67
2023/05/05 05:04:32;;;;;;;4.47;2.72;;;11.80;89.60;;;;;;4964071;28;20109;-67
2023/05/05 05:06:58;;;;;;;9.32;3.38;;;11.90;90.10;;;;;;4964275;28;20030;-66
2023/05/05 05:09:24;;;;;;;8.15;2.90;;;11.90;87.70;;;;;;4965772;28;20035;-67
2023/05/05 05:11:50;;;;;;;6.50;3.50;;;12.10;88.00;;;;;;4967081;28;20038;-67
2023/05/05 05:14:16;;;;;;;6.65;3.20;;;12.20;87.50;;;;;;4965363;28;20840;-67
2023/05/05 05:16:42;;;;;;;4.53;2.85;;;12.40;87.60;;;;;;4965008;28;20027;-66
2023/05/05 05:19:07;;;;;;;7.30;3.28;;;12.50;86.90;;;;;;4966603;28;20922;-66
2023/05/05 05:21:33;;;;;;;7.47;2.97;;;12.50;83.60;;;;;;4966934;28;20034;-67
2023/05/05 05:23:59;;;;;;;9.68;3.08;;;12.70;83.00;;;;;;4973977;28;20848;-66
2023/05/05 05:26:26;;;;;;;8.13;3.45;;;12.80;83.30;;;;;;4968944;28;20027;-67
2023/05/05 05:28:52;;;;;;;6.22;3.08;;;13.00;83.00;;;;;;4967853;28;20045;-66
2023/05/05 05:31:18;;;;;;;10.02;3.00;;;13.10;81.40;;;;;;4956944;28;20053;-66
2023/05/05 05:33:45;;;;;;;6.47;3.35;;;13.50;82.60;;;;;;4961724;28;20030;-67
2023/05/05 05:36:12;;;;;;;6.82;3.40;;;14.00;79.80;;;;;;4963996;28;20781;-66
2023/05/05 05:38:38;;;;;;;10.30;3.75;;;14.50;75.90;;;;;;4966385;28;20094;-66
2023/05/05 05:41:06;;;;;;;7.95;3.17;;;15.00;74.80;;;;;;4960904;28;20835;-66
2023/05/05 05:43:33;;;;;;;8.02;2.97;;;15.40;72.60;;;;;;4964869;28;20469;-65
2023/05/05 05:45:59;;;;;;;10.32;3.55;;;15.90;71.40;;;;;;4961412;28;20045;-66
2023/05/05 05:48:28;;;;;;;5.57;3.10;;;16.30;68.40;;;;;;4964615;28;20027;-63
2023/05/05 05:50:55;;;;;;;9.85;3.80;;;16.50;67.20;;;;;;4958672;28;20034;-66
2023/05/05 05:53:21;;;;;;;11.25;3.38;;;16.80;65.70;;;;;;4962408;28;20776;-66
2023/05/05 05:55:48;;;;;;;7.35;3.47;;;17.00;66.20;;;;;;4962831;28;20110;-66
2023/05/05 05:58:15;;;;;;;8.40;3.50;;;17.40;64.20;;;;;;4959801;28;20053;-66
2023/05/05 06:00:42;;;;;;;13.13;4.15;;;17.60;63.40;;;;;;4959022;28;20835;-66
2023/05/05 06:03:09;;;;;;;10.88;4.18;;;17.40;61.80;;;;;;4965263;28;20046;-66
2023/05/05 06:05:37;;;;;;;9.45;4.28;;;16.80;62.10;;;;;;4955707;28;20047;-66
2023/05/05 06:08:03;;;;;;;7.10;3.53;;;16.40;63.70;;;;;;4964062;28;20589;-66
2023/05/05 06:10:31;;;;;;;6.65;4.35;;;16.20;64.90;;;;;;4963132;28;20976;-66
2023/05/05 06:13:02;;;;;;;10.93;4.30;;;15.80;65.00;;;;;;4962265;28;20038;-65
2023/05/05 06:15:30;;;;;;;6.43;3.40;;;15.60;66.90;;;;;;4959030;28;20030;-66
2023/05/05 06:17:56;;;;;;;9.63;4.38;;;15.50;67.50;;;;;;4967825;28;20034;-66
2023/05/05 06:20:22;;;;;;;8.32;3.63;;;15.60;67.00;;;;;;4962350;28;20023;-66
2023/05/05 06:22:48;;;;;;;6.82;4.05;;;15.80;66.20;;;;;;4960626;28;20073;-66
2023/05/05 06:25:14;;;;;;;5.82;3.88;;;16.20;66.90;;;;;;4959472;28;20035;-66
2023/05/05 06:27:39;;;;;;;8.82;4.43;;;16.50;65.20;;;;;;4956137;28;20066;-66
2023/05/05 06:30:06;;;;;;;7.28;3.97;;;16.80;63.80;;;;;;4960343;28;20045;-67
2023/05/05 06:32:33;;;;;;;10.05;4.50;;;16.90;63.20;;;;;;4958720;28;20474;-67
2023/05/05 06:34:59;;;;;;;11.73;4.13;;;17.10;62.00;;;;;;4958176;28;20050;-66
2023/05/05 06:37:25;;;;;;;5.25;3.17;;;17.10;61.20;;;;;;4959567;28;20136;-66
2023/05/05 06:39:50;;;;;;;8.80;3.70;;;17.20;61.30;;;;;;4963781;28;20815;-66
2023/05/05 06:42:16;;;;;;;8.50;4.00;;;17.30;60.90;;;;;;4962734;28;20035;-66
2023/05/05 06:44:42;;;;;;;9.48;3.97;;;17.40;60.20;;;;;;4964417;28;20034;-66
2023/05/05 06:47:08;;;;;;;8.45;3.63;;;17.40;59.80;;;;;;4966851;28;20045;-66
2023/05/05 06:49:33;;;;;;;5.85;3.50;;;17.70;60.40;;;;;;4962006;28;20027;-66
2023/05/05 06:51:59;;;;;;;7.47;4.35;;;18.00;58.80;;;;;;4971524;28;20109;-66
2023/05/05 06:54:25;;;;;;;8.88;3.92;;;17.90;58.40;;;;;;4966685;28;20689;-66
2023/05/05 06:56:51;;;;;;;9.48;4.00;;;17.80;59.60;;;;;;4968433;28;20037;-66
2023/05/05 06:59:17;;;;;;;8.55;4.63;;;17.80;59.00;;;;;;4967956;28;20098;-67
2023/05/05 07:01:43;;;;;;;8.25;4.00;;;17.80;58.00;;;;;;4968619;28;20042;-67
2023/05/05 07:04:09;;;;;;;9.65;3.83;;;17.90;58.40;;;;;;4966774;28;20035;-66
2023/05/05 07:06:35;;;;;;;11.60;3.90;;;18.00;58.20;;;;;;4970926;28;20023;-67
2023/05/05 07:09:00;;;;;;;6.88;3.70;;;18.00;58.60;;;;;;4963602;28;20077;-66
2023/05/05 07:11:26;;;;;;;13.27;4.18;;;17.80;58.40;;;;;;4968162;28;20038;-66
2023/05/05 07:13:52;;;;;;;9.43;4.32;;;17.80;58.40;;;;;;4968634;28;20035;-67
2023/05/05 07:16:18;;;;;;;10.40;4.10;;;17.70;58.60;;;;;;4963268;28;20659;-66
2023/05/05 07:18:43;;;;;;;13.52;4.50;;;17.50;58.70;;;;;;4968476;28;20557;-66
2023/05/05 07:21:09;;;;;;;8.00;4.00;;;17.50;59.40;;;;;;4970483;28;20031;-67
2023/05/05 07:23:36;;;;;;;9.75;4.05;;;17.60;59.90;;;;;;4967088;28;20022;-66
2023/05/05 07:26:02;;;;;;;15.88;4.60;;;17.70;59.20;;;;;;4970612;28;20502;-67
2023/05/05 07:28:28;;;;;;;9.07;4.43;;;17.80;59.00;;;;;;4971720;28;20573;-67
2023/05/05 07:30:54;;;;;;;8.70;3.92;;;17.80;58.40;;;;;;4969588;28;20107;-66
2023/05/05 07:33:20;;;;;;;10.55;4.38;;;17.80;58.00;;;;;;4971438;28;20073;-67
2023/05/05 07:35:45;;;;;;;9.25;4.40;;;17.80;58.10;;;;;;4967592;28;20038;-66
2023/05/05 07:38:11;;;;;;;7.97;4.13;;;17.80;57.50;;;;;;4968979;28;20045;-67
2023/05/05 07:40:37;;;;;;;11.30;4.00;;;17.90;58.00;;;;;;4968405;28;20027;-66
2023/05/05 07:43:03;;;;;;;9.88;4.13;;;18.10;57.60;;;;;;4976522;28;20030;-66
2023/05/05 07:45:30;;;;;;;11.25;4.18;;;18.30;56.50;;;;;;4970695;28;20126;-67
2023/05/05 07:47:56;;;;;;;14.00;4.07;;;18.30;56.60;;;;;;4971811;28;20798;-68
2023/05/05 07:50:22;;;;;;;9.95;3.60;;;18.10;56.30;;;;;;4967769;28;20041;-67
2023/05/05 07:52:48;;;;;;;12.93;4.00;;;18.20;57.10;;;;;;4973556;28;20108;-67
2023/05/05 07:55:14;;;;;;;8.25;3.92;;;18.20;57.00;;;;;;4971184;28;20046;-67
2023/05/05 07:57:39;;;;;;;8.23;3.75;;;18.20;56.70;;;;;;4970546;28;20043;-66
2023/05/05 08:00:06;;;;;;;7.18;3.10;;;18.10;56.80;;;;;;4972498;28;20049;-66
2023/05/05 08:02:37;;;;;;;8.90;4.10;;;18.20;58.40;;;;;;4969403;28;20043;-67
2023/05/05 08:05:04;;;;;;;9.00;4.38;;;18.30;57.20;;;;;;4972072;28;20046;-66
2023/05/05 08:07:29;;;;;;;9.43;3.47;;;18.60;57.10;;;;;;4969990;28;20173;-67
2023/05/05 08:09:56;;;;;;;9.75;4.15;;;18.90;56.20;;;;;;4968785;28;20030;-67
2023/05/05 08:12:21;;;;;;;8.38;3.70;;;19.00;53.90;;;;;;4972619;28;20501;-66
2023/05/05 08:14:47;;;;;;;8.00;3.63;;;19.20;53.70;;;;;;4969887;28;20043;-66
2023/05/05 08:17:13;;;;;;;10.00;3.67;;;19.00;53.30;;;;;;4970236;28;20494;-66
2023/05/05 08:19:39;;;;;;;8.43;4.38;;;18.90;53.50;;;;;;4972625;28;20410;-67
2023/05/05 08:22:04;;;;;;;7.70;3.53;;;18.70;53.60;;;;;;4972105;28;20058;-66
2023/05/05 08:24:30;;;;;;;9.98;4.13;;;18.50;54.10;;;;;;4976727;28;20141;-66
2023/05/05 08:26:56;;;;;;;7.47;3.65;;;18.50;54.10;;;;;;4967790;28;20078;-67
2023/05/05 08:29:22;;;;;;;7.30;3.67;;;18.60;54.90;;;;;;4970265;28;20034;-67
2023/05/05 08:31:47;;;;;;;8.57;3.70;;;18.60;55.10;;;;;;4971797;28;20096;-66
2023/05/05 08:34:13;;;;;;;8.13;3.47;;;18.70;54.60;;;;;;4976099;28;20093;-66
2023/05/05 08:36:39;;;;;;;7.35;3.67;;;18.60;54.30;;;;;;4969707;28;20042;-66
2023/05/05 08:39:05;;;;;;;4.90;3.40;;;18.80;54.30;;;;;;4968066;28;20034;-67
2023/05/05 08:41:32;;;;;;;9.93;4.13;;;18.90;53.70;;;;;;4970668;28;20085;-66
2023/05/05 08:43:58;;;;;;;8.77;3.72;;;19.20;54.40;;;;;;4972019;28;20054;-67
2023/05/05 08:46:25;;;;;;;9.73;3.67;;;19.30;53.50;;;;;;4964589;28;20519;-66
2023/05/05 08:48:54;;;;;;;12.00;3.58;;;19.40;52.40;;;;;;4968703;28;20045;-66
2023/05/05 08:51:20;;;;;;;8.82;3.63;;;19.50;52.60;;;;;;4967110;28;20627;-67
2023/05/05 08:54:00;;;;;;;7.72;3.60;;;19.70;52.60;;;;;;4971117;28;20042;-67
2023/05/05 08:56:32;;;;;;;6.93;3.00;;;19.90;52.20;;;;;;4969587;28;20068;-67
2023/05/05 08:59:00;;;;;;;8.43;3.25;;;20.30;51.30;;;;;;4967769;28;20407;-67
2023/05/05 09:01:26;;;;;;;7.82;3.60;;;20.80;50.70;;;;;;4970187;28;20081;-67
2023/05/05 09:03:52;;;;;;;7.18;3.40;;;21.20;49.30;;;;;;4967881;28;20034;-67
2023/05/05 09:06:24;;;;;;;8.00;3.53;;;21.30;49.30;;;;;;4972380;28;20134;-67
2023/05/05 09:08:50;;;;;;;5.95;3.55;;;21.30;48.50;;;;;;4966160;28;20093;-67
2023/05/05 09:11:16;;;;;;;7.03;3.00;;;21.30;48.70;;;;;;4970564;28;20713;-67
2023/05/05 09:13:42;;;;;;;5.63;3.38;;;21.50;49.50;;;;;;4967399;28;20034;-67
2023/05/05 09:16:08;;;;;;;8.52;3.55;;;21.30;48.40;;;;;;4963419;28;20034;-66
2023/05/05 09:18:36;;;;;;;7.55;3.53;;;21.40;48.20;;;;;;4969619;28;20359;-67
2023/05/05 09:21:21;;;;;;;7.88;3.60;;;21.30;48.20;;;;;;4971844;28;20132;-67
2023/05/05 09:24:06;;;;;;;6.88;3.10;;;21.40;48.80;;;;;;4969959;28;20026;-66
2023/05/05 09:26:36;;;;;;;7.40;3.53;;;21.50;48.10;;;;;;4968714;28;20031;-67
2023/05/05 09:29:03;;;;;;;11.05;3.53;;;21.60;48.00;;;;;;4968203;28;20104;-66
2023/05/05 09:31:33;;;;;;;8.63;3.47;;;21.60;47.50;;;;;;4965462;28;20841;-67
2023/05/05 09:34:00;;;;;;;6.85;3.90;;;21.80;47.70;;;;;;4969995;28;20038;-67
2023/05/05 09:36:42;;;;;;;8.32;3.90;;;21.80;46.80;;;;;;4967176;28;20031;-67
2023/05/05 09:39:08;;;;;;;8.05;3.80;;;21.70;46.90;;;;;;4968025;28;20562;-66
2023/05/05 09:41:42;;;;;;;7.93;3.55;;;21.90;48.00;;;;;;4967094;28;20546;-66
2023/05/05 09:44:09;;;;;;;6.07;3.28;;;22.20;48.60;;;;;;4965857;28;20038;-67
2023/05/05 09:46:34;;;;;;;8.60;3.22;;;22.60;46.90;;;;;;4967239;28;20112;-66
2023/05/05 09:49:14;;;;;;;7.65;3.50;;;22.90;46.40;;;;;;4967736;28;20038;-66
2023/05/05 09:51:40;;;;;;;10.48;3.67;;;22.70;45.10;;;;;;4963057;28;20491;-67
2023/05/05 09:54:06;;;;;;;5.95;2.72;;;22.60;47.10;;;;;;4963074;28;20660;-66
2023/05/05 09:56:39;;;;;;;8.15;2.90;;;22.50;47.30;;;;;;4966103;28;20137;-66
2023/05/05 09:59:11;;;;;;;8.02;3.50;;;22.70;47.40;;;;;;4974106;28;20041;-66
2023/05/05 10:01:38;;;;;;;8.07;3.30;;;22.80;48.10;;;;;;4963459;28;20117;-67
2023/05/05 10:04:04;;;;;;;9.55;3.10;;;22.80;46.00;;;;;;4969285;28;20046;-67
2023/05/05 10:06:43;;;;;;;11.00;3.90;;;22.90;47.00;;;;;;4964569;28;20038;-67
2023/05/05 10:09:09;;;;;;;6.25;3.50;;;22.70;45.60;;;;;;4963292;28;20038;-66
2023/05/05 10:11:35;;;;;;;5.88;2.65;;;22.60;45.90;;;;;;4968558;28;20039;-67
2023/05/05 10:14:03;;;;;;;8.05;3.22;;;22.60;46.10;;;;;;4965971;28;20704;-67
2023/05/05 10:16:31;;;;;;;6.55;3.28;;;22.70;46.40;;;;;;4969655;28;20066;-66
2023/05/05 10:19:01;;;;;;;5.18;3.28;;;22.80;45.50;;;;;;4965499;28;20063;-66
2023/05/05 10:21:31;;;;;;;7.05;3.13;;;22.90;45.70;;;;;;4970249;28;20030;-66
2023/05/05 10:24:13;;;;;;;8.48;2.90;;;22.90;46.40;;;;;;4965392;28;20151;-66
2023/05/05 10:26:43;;;;;;;6.28;2.85;;;23.00;47.10;;;;;;4969019;28;20042;-67
2023/05/05 10:29:27;;;;;;;4.97;2.97;;;22.90;46.50;;;;;;4968128;28;20035;-66
2023/05/05 10:31:56;;;;;;;7.45;3.28;;;22.80;45.90;;;;;;4966969;28;20039;-67
2023/05/05 10:34:47;;;;;;;7.50;3.33;;;22.80;46.60;;;;;;4966960;28;20491;-67
2023/05/05 10:37:16;;;;;;;5.95;3.15;;;22.80;46.20;;;;;;4966737;28;20105;-67
2023/05/05 10:39:44;;;;;;;4.90;2.50;;;22.60;46.10;;;;;;4967899;28;20566;-66
2023/05/05 10:42:12;;;;;;;9.98;2.80;;;22.60;46.40;;;;;;4969716;28;20034;-66
2023/05/05 10:44:38;;;;;;;6.40;2.92;;;22.70;46.90;;;;;;4963577;28;20425;-67
2023/05/05 10:47:05;;;;;;;9.70;2.50;;;22.70;45.30;;;;;;4963657;28;20033;-67
2023/05/05 10:49:52;;;;;;;8.88;2.47;;;22.80;46.20;;;;;;4967215;28;20057;-67
2023/05/05 10:52:36;;;;;;;4.72;2.85;;;22.70;45.80;;;;;;4970586;28;20038;-67
2023/05/05 10:55:21;;;;;;;8.57;3.40;;;22.90;46.00;;;;;;4969816;28;20538;-66
2023/05/05 10:57:52;;;;;;;5.15;2.75;;;22.80;44.80;;;;;;4965542;28;20038;-67
2023/05/05 11:00:36;;;;;;;4.40;2.90;;;22.70;47.90;;;;;;4973302;28;20133;-68
2023/05/05 11:03:18;;;;;;;16.52;3.15;;;22.70;47.50;;;;;;4969216;28;20037;-67
2023/05/05 11:06:03;;;;;;;7.05;2.80;;;22.50;46.10;;;;;;4974018;28;20030;-67
2023/05/05 11:08:33;;;;;;;5.18;2.53;;;22.30;46.70;;;;;;4967611;28;20041;-67
2023/05/05 11:10:59;;;;;;;6.43;2.88;;;22.10;46.30;;;;;;4966585;28;20034;-67
2023/05/05 11:13:26;;;;;;;4.82;2.63;;;22.00;47.30;;;;;;4965459;28;20033;-67
2023/05/05 11:15:53;;;;;;;5.30;2.55;;;21.80;46.80;;;;;;4972071;28;20494;-68
2023/05/05 11:18:43;;;;;;;5.30;2.50;;;21.90;48.20;;;;;;4973871;28;20482;-67
2023/05/05 11:21:16;;;;;;;8.60;2.60;;;22.00;47.60;;;;;;4973812;28;20046;-67
2023/05/05 11:23:45;;;;;;;5.75;2.80;;;22.10;48.30;;;;;;4974034;28;20023;-67
2023/05/05 11:26:12;;;;;;;6.90;3.20;;;22.00;47.60;;;;;;4973427;28;20385;-68
2023/05/05 11:28:58;;;;;;;4.03;1.92;;;22.00;46.40;;;;;;4966249;28;20789;-67
2023/05/05 11:31:24;;;;;;;6.10;2.50;;;21.90;47.30;;;;;;4968798;28;20030;-68
2023/05/05 11:33:50;;;;;;;4.82;2.90;;;21.90;47.30;;;;;;4972774;28;20042;-68
2023/05/05 11:36:17;;;;;;;7.68;2.72;;;21.90;47.10;;;;;;4970235;28;20568;-68
2023/05/05 11:39:09;;;;;;;4.82;2.78;;;21.80;47.70;;;;;;4971544;28;20232;-68
2023/05/05 11:41:56;;;;;;;7.05;2.38;;;21.90;47.10;;;;;;4970395;28;20089;-68
2023/05/05 11:44:30;;;;;;;4.25;2.88;;;22.00;46.50;;;;;;4966803;28;20114;-67
2023/05/05 11:46:59;;;;;;;5.40;2.45;;;22.00;46.80;;;;;;4958512;28;20481;-67
2023/05/05 11:49:32;;;;;;;8.90;2.60;;;21.90;47.90;;;;;;4967046;28;20039;-68
2023/05/05 11:51:59;;;;;;;4.55;2.38;;;22.00;46.90;;;;;;4969269;28;20031;-69
2023/05/05 11:54:26;;;;;;;5.28;2.67;;;22.20;47.00;;;;;;4967005;28;20035;-67
2023/05/05 11:57:04;;;;;;;7.68;2.35;;;22.10;45.90;;;;;;4970366;28;20080;-67
2023/05/05 11:59:31;;;;;;;4.47;2.63;;;22.00;44.80;;;;;;4961605;28;20072;-67
2023/05/05 12:01:58;;;;;;;5.20;2.22;;;22.00;44.50;;;;;;4969959;28;20073;-67
2023/05/05 12:04:24;;;;;;;6.45;2.40;;;22.00;45.90;;;;;;4969238;28;20672;-67
2023/05/05 12:06:50;;;;;;;3.72;2.20;;;22.00;46.40;;;;;;4968781;28;20039;-67
2023/05/05 12:09:17;;;;;;;8.95;2.60;;;22.00;46.00;;;;;;4969178;28;20037;-67
2023/05/05 12:11:57;;;;;;;5.20;2.22;;;22.00;47.10;;;;;;4970169;28;20045;-67
2023/05/05 12:14:23;;;;;;;4.63;2.53;;;22.10;47.10;;;;;;4964897;28;20034;-67
2023/05/05 12:17:05;;;;;;;3.13;2.17;;;22.10;45.80;;;;;;4961146;28;20447;-67
2023/05/05 12:19:34;;;;;;;3.95;2.40;;;22.10;45.90;;;;;;4970012;28;20387;-67
2023/05/05 12:22:01;;;;;;;5.60;2.45;;;22.10;46.40;;;;;;4963399;28;20118;-67
2023/05/05 12:24:29;;;;;;;3.58;2.40;;;22.00;46.60;;;;;;4971123;28;20019;-67
2023/05/05 12:27:05;;;;;;;6.22;2.38;;;22.00;46.90;;;;;;4967240;28;20058;-67
2023/05/05 12:29:31;;;;;;;7.60;2.25;;;21.90;45.70;;;;;;4967779;28;20511;-67
2023/05/05 12:31:58;;;;;;;5.38;2.35;;;21.90;45.00;;;;;;4970484;28;20041;-67
2023/05/05 12:34:25;;;;;;;6.95;2.60;;;21.80;44.70;;;;;;4969233;28;20921;-67
2023/05/05 12:36:53;;;;;;;3.88;2.15;;;21.80;45.70;;;;;;4970574;28;20121;-67
2023/05/05 12:39:19;;;;;;;5.03;3.05;;;21.90;45.90;;;;;;4966349;28;20030;-67
2023/05/05 12:41:45;;;;;;;4.30;2.40;;;21.80;46.50;;;;;;4965239;28;20884;-67
2023/05/05 12:44:11;;;;;;;5.60;2.30;;;21.80;45.90;;;;;;4962342;28;20035;-67
2023/05/05 12:46:44;;;;;;;4.07;2.03;;;21.90;44.70;;;;;;4965904;28;20795;-67
2023/05/05 12:49:10;;;;;;;7.22;2.30;;;22.00;44.40;;;;;;4965643;28;20045;-66
2023/05/05 12:51:37;;;;;;;4.40;2.30;;;22.10;46.40;;;;;;4966276;28;20757;-67
2023/05/05 12:54:12;;;;;;;4.93;2.13;;;22.20;46.00;;;;;;4971036;28;20611;-67
2023/05/05 12:56:39;;;;;;;3.42;1.88;;;22.10;45.40;;;;;;4970262;28;20380;-66